createdAt,value
2022-08-02T00:00:08.123Z,0.0
2022-08-02T00:05:08.667Z,0.0
2022-08-02T00:10:08.344Z,0.0
2022-08-02T00:15:08.046Z,0.0
2022-08-02T00:20:07.768Z,0.0
2022-08-02T00:25:08.458Z,0.0
2022-08-02T00:30:08.136Z,0.0
2022-08-02T00:35:07.840Z,0.0
2022-08-02T00:40:08.547Z,0.0
2022-08-02T00:45:08.210Z,0.0
2022-08-02T00:50:07.889Z,0.0
2022-08-02T00:55:08.611Z,0.0
2022-08-02T01:00:07.713Z,0.0
2022-08-02T01:05:08.403Z,0.0
2022-08-02T01:10:08.120Z,0.0
2022-08-02T01:15:07.813Z,0.0
2022-08-02T01:20:08.515Z,0.0
2022-08-02T01:25:08.219Z,0.0
2022-08-02T01:30:07.948Z,0.0
2022-08-02T01:35:07.659Z,0.0
2022-08-02T01:40:11.110Z,0.0
2022-08-02T01:45:07.821Z,0.0
2022-08-02T01:50:08.495Z,0.0
2022-08-02T01:55:09.838Z,0.0
2022-08-02T02:00:08.642Z,0.0
2022-08-02T02:05:08.318Z,0.0
2022-08-02T02:10:08.009Z,0.0
2022-08-02T02:15:07.715Z,0.0
2022-08-02T02:20:08.425Z,0.0
2022-08-02T02:25:08.111Z,0.0
2022-08-02T02:30:08.014Z,0.0
2022-08-02T02:35:07.731Z,0.0
2022-08-02T02:40:08.458Z,0.0
2022-08-02T02:45:08.185Z,0.0
2022-08-02T02:50:07.898Z,0.0
2022-08-02T02:55:08.627Z,0.0
2022-08-02T03:00:08.310Z,0.0
2022-08-02T03:05:07.992Z,0.0
2022-08-02T03:10:07.719Z,0.0
2022-08-02T03:15:08.419Z,0.0
2022-08-02T03:20:08.157Z,0.0
2022-08-02T03:25:07.841Z,0.0
2022-08-02T03:30:08.515Z,0.0
2022-08-02T03:35:08.246Z,0.0
2022-08-02T03:40:07.947Z,0.0
2022-08-02T03:45:08.878Z,0.0
2022-08-02T03:50:07.862Z,0.0
2022-08-02T03:55:08.553Z,0.0
2022-08-02T04:00:08.267Z,0.0
2022-08-02T04:05:02.140Z,0.0
2022-08-02T04:10:01.953Z,0.0
2022-08-02T04:15:04.624Z,0.0
2022-08-02T04:20:09.928Z,0.0
2022-08-02T04:25:02.663Z,0.0
2022-08-02T04:30:01.991Z,0.0
2022-08-02T04:35:20.027Z,0.0
2022-08-02T04:40:07.262Z,0.0
2022-08-02T04:45:02.290Z,0.0
2022-08-02T04:50:02.185Z,0.0
2022-08-02T04:55:02.043Z,0.0
2022-08-02T05:00:01.996Z,0.0
2022-08-02T05:05:03.751Z,0.0
2022-08-02T05:10:02.367Z,0.0
2022-08-02T05:15:01.858Z,0.0
2022-08-02T05:20:02.751Z,0.0
2022-08-02T05:25:02.548Z,0.0
2022-08-02T05:30:02.357Z,0.0
2022-08-02T05:35:02.231Z,0.0
2022-08-02T05:40:02.024Z,0.0
2022-08-02T05:45:01.948Z,0.0
2022-08-02T05:50:01.779Z,0.0
2022-08-02T05:55:02.676Z,0.0
2022-08-02T06:00:02.860Z,0.0
2022-08-02T06:05:01.988Z,0.0
2022-08-02T06:10:01.835Z,0.0
2022-08-02T06:15:02.725Z,0.0
2022-08-02T06:20:02.548Z,0.0
2022-08-02T06:25:02.304Z,0.0
2022-08-02T06:30:02.202Z,0.0
2022-08-02T06:35:01.975Z,0.0
2022-08-02T06:40:01.845Z,0.0
2022-08-02T06:45:02.687Z,0.0
2022-08-02T06:50:02.684Z,0.0
2022-08-02T06:55:02.678Z,0.0
2022-08-02T07:00:02.622Z,0.0
2022-08-02T07:05:02.412Z,0.0
2022-08-02T07:10:02.339Z,0.0
2022-08-02T07:15:02.464Z,0.0
2022-08-02T07:20:02.464Z,0.0
2022-08-02T07:25:02.458Z,0.0
2022-08-02T07:30:02.391Z,1.0
2022-08-02T07:35:06.518Z,1.0
2022-08-02T07:40:02.112Z,0.0
2022-08-02T07:45:02.562Z,0.0
2022-08-02T07:50:02.444Z,0.0
2022-08-02T07:55:02.198Z,0.0
2022-08-02T08:00:02.192Z,1.2
2022-08-02T08:05:01.946Z,1.2
2022-08-02T08:10:01.797Z,1.0
2022-08-02T08:15:02.655Z,1.0
2022-08-02T08:20:02.481Z,2.0
2022-08-02T08:25:02.281Z,2.0
2022-08-02T08:30:01.832Z,1.0
2022-08-02T08:35:02.585Z,0.0
2022-08-02T08:40:02.495Z,0.0
2022-08-02T08:45:02.330Z,0.0
2022-08-02T08:50:02.674Z,0.0
2022-08-02T08:55:02.489Z,0.0
2022-08-02T09:00:02.230Z,1.2
2022-08-02T09:05:02.033Z,1.2
2022-08-02T09:10:01.823Z,1.0
2022-08-02T09:15:02.645Z,1.0
2022-08-02T09:20:02.464Z,1.9
2022-08-02T09:25:02.329Z,1.9
2022-08-02T09:30:12.172Z,1.2
2022-08-02T09:35:02.258Z,1.2
2022-08-02T09:40:02.896Z,2.8
2022-08-02T09:45:02.663Z,0.0
2022-08-02T09:50:02.755Z,0.0
2022-08-02T09:55:02.945Z,2.1
2022-08-02T10:00:01.969Z,2.1
2022-08-02T10:05:02.673Z,2.1
2022-08-02T10:10:02.718Z,2.1
2022-08-02T10:15:02.720Z,1.7
2022-08-02T10:20:04.939Z,1.7
2022-08-02T10:25:01.976Z,3.0
2022-08-02T10:30:01.799Z,3.0
2022-08-02T10:35:18.708Z,2.0
2022-08-02T10:40:02.090Z,3.3
2022-08-02T10:45:01.930Z,3.3
2022-08-02T10:50:02.822Z,3.1
2022-08-02T10:55:02.712Z,3.1
2022-08-02T11:00:02.652Z,2.6
2022-08-02T11:05:02.459Z,2.6
2022-08-02T11:10:02.294Z,2.5
2022-08-02T11:15:02.104Z,2.5
2022-08-02T11:20:01.952Z,3.0
2022-08-02T11:25:01.747Z,3.0
2022-08-02T11:30:02.509Z,2.3
2022-08-02T11:35:02.228Z,2.3
2022-08-02T11:40:02.119Z,1.2
2022-08-02T11:45:02.106Z,1.2
2022-08-02T11:50:01.942Z,1.4
2022-08-02T11:55:02.110Z,1.4
2022-08-02T12:00:01.894Z,2.4
2022-08-02T12:05:02.835Z,2.4
2022-08-02T12:10:02.188Z,2.7
2022-08-02T12:15:02.337Z,2.7
2022-08-02T12:20:02.163Z,2.8
2022-08-02T12:25:01.990Z,2.8
2022-08-02T12:30:01.907Z,1.8
2022-08-02T12:35:02.890Z,1.8
2022-08-02T12:40:02.787Z,1.9
2022-08-02T12:45:02.745Z,1.9
2022-08-02T12:50:02.805Z,1.9
2022-08-02T12:55:02.766Z,1.9
2022-08-02T13:00:02.743Z,2.5
2022-08-02T13:05:02.951Z,2.5
2022-08-02T13:10:03.440Z,3.1
2022-08-02T13:15:02.611Z,3.1
2022-08-02T13:20:02.474Z,2.3
2022-08-02T13:25:02.562Z,2.3
2022-08-02T13:30:02.409Z,2.2
2022-08-02T13:35:02.242Z,2.2
2022-08-02T13:45:13.642Z,3.5
2022-08-02T13:50:02.128Z,3.1
2022-08-02T13:55:02.301Z,3.1
2022-08-02T14:00:02.240Z,2.6
2022-08-02T14:05:02.136Z,2.6
2022-08-02T14:10:01.926Z,3.8
2022-08-02T14:15:02.757Z,3.8
2022-08-02T14:20:02.609Z,3.2
2022-08-02T14:25:09.074Z,3.2
2022-08-02T14:30:02.337Z,2.7
2022-08-02T14:35:02.168Z,2.7
2022-08-02T14:40:02.207Z,2.4
2022-08-02T14:45:02.123Z,2.4
2022-08-02T14:50:02.117Z,3.0
2022-08-02T14:55:01.940Z,3.0
2022-08-02T15:00:02.806Z,3.3
2022-08-02T15:05:02.628Z,3.3
2022-08-02T15:10:02.658Z,4.3
2022-08-02T15:15:02.639Z,4.3
2022-08-02T15:20:23.431Z,1.4
2022-08-02T15:25:02.744Z,1.4
2022-08-02T15:30:02.588Z,2.3
2022-08-02T15:35:03.196Z,2.3
2022-08-02T15:40:02.197Z,2.4
2022-08-02T15:45:02.224Z,2.4
2022-08-02T15:50:02.056Z,1.7
2022-08-02T15:55:06.918Z,1.7
2022-08-02T16:00:02.193Z,2.6
2022-08-02T16:05:02.019Z,2.6
2022-08-02T16:10:01.918Z,3.2
2022-08-02T16:15:02.409Z,3.2
2022-08-02T16:20:02.226Z,1.5
2022-08-02T16:25:02.027Z,1.5
2022-08-02T16:30:01.957Z,2.2
2022-08-02T16:35:07.451Z,2.5
2022-08-02T16:40:02.135Z,2.8
2022-08-02T16:45:02.032Z,2.8
2022-08-02T16:50:04.837Z,2.3
2022-08-02T16:55:02.352Z,2.3
2022-08-02T17:00:02.982Z,1.9
2022-08-02T17:05:02.066Z,1.9
2022-08-02T17:10:06.382Z,2.6
2022-08-02T17:15:09.028Z,2.6
2022-08-02T17:20:02.722Z,2.5
2022-08-02T17:25:02.518Z,2.5
2022-08-02T17:30:02.432Z,1.5
2022-08-02T17:35:03.775Z,1.5
2022-08-02T17:40:01.912Z,1.9
2022-08-02T17:45:16.519Z,1.9
2022-08-02T17:50:02.104Z,1.9
2022-08-02T17:55:02.341Z,1.9
2022-08-02T18:00:04.288Z,1.3
2022-08-02T18:05:02.706Z,1.3
2022-08-02T18:10:02.398Z,2.1
2022-08-02T18:15:02.381Z,2.1
2022-08-02T18:20:10.186Z,1.9
2022-08-02T18:25:09.401Z,1.9
2022-08-02T18:30:04.525Z,0.0
2022-08-02T18:35:01.785Z,0.0
2022-08-02T18:40:02.443Z,0.0
2022-08-02T18:45:02.348Z,0.0
2022-08-02T18:50:02.093Z,0.0
2022-08-02T18:55:05.202Z,0.0
2022-08-02T19:00:02.142Z,0.0
2022-08-02T19:05:01.998Z,0.0
2022-08-02T19:10:01.826Z,0.0
2022-08-02T19:15:02.589Z,0.0
2022-08-02T19:20:02.392Z,0.0
2022-08-02T19:25:02.226Z,0.0
2022-08-02T19:30:02.534Z,0.0
2022-08-02T19:35:02.491Z,0.0
2022-08-02T19:40:01.912Z,0.0
2022-08-02T19:45:02.662Z,0.0
2022-08-02T19:50:02.233Z,0.0
2022-08-02T19:56:01.138Z,0.0
2022-08-02T20:00:02.069Z,0.0
2022-08-02T20:05:01.880Z,0.0
2022-08-02T20:10:02.015Z,0.0
2022-08-02T20:15:01.903Z,0.0
2022-08-02T20:20:02.680Z,0.0
2022-08-02T20:25:07.828Z,0.0
2022-08-02T20:30:01.846Z,0.0
2022-08-02T20:35:08.570Z,0.0
2022-08-02T20:40:08.265Z,0.0
2022-08-02T20:45:08.004Z,0.0
2022-08-02T20:50:07.794Z,0.0
2022-08-02T20:55:08.178Z,0.0
2022-08-02T21:00:07.825Z,0.0
2022-08-02T21:05:17.291Z,0.0
2022-08-02T21:10:08.205Z,0.0
2022-08-02T21:15:08.600Z,0.0
2022-08-02T21:20:08.208Z,0.0
2022-08-02T21:25:09.047Z,0.0
2022-08-02T21:30:07.880Z,0.0
2022-08-02T21:35:07.729Z,0.0
2022-08-02T21:40:08.634Z,0.0
2022-08-02T21:45:16.788Z,0.0
2022-08-02T21:50:13.278Z,0.0
2022-08-02T21:55:07.876Z,0.0
2022-08-02T22:00:08.532Z,0.0
2022-08-02T22:05:14.127Z,0.0
2022-08-02T22:10:08.215Z,0.0
2022-08-02T22:15:10.285Z,0.0
2022-08-02T22:20:08.318Z,0.0
2022-08-02T22:25:10.083Z,0.0
2022-08-02T22:30:08.077Z,0.0
2022-08-02T22:35:08.893Z,0.0
2022-08-02T22:40:09.080Z,0.0
2022-08-02T22:45:08.478Z,0.0
2022-08-02T22:50:11.771Z,0.0
2022-08-02T22:55:08.638Z,0.0
2022-08-02T23:00:58.939Z,0.0
2022-08-02T23:05:08.304Z,0.0
2022-08-02T23:10:08.009Z,0.0
2022-08-02T23:15:07.683Z,0.0
2022-08-02T23:20:08.413Z,0.0
2022-08-02T23:25:08.130Z,0.0
2022-08-02T23:30:07.841Z,0.0
2022-08-02T23:35:08.562Z,0.0
2022-08-02T23:40:08.285Z,0.0
2022-08-02T23:45:07.974Z,0.0
2022-08-02T23:50:07.689Z,0.0
2022-08-02T23:55:08.388Z,0.0
